Time;durP1;ratioP1;P1;durP2;ratioP2;P2;SDS_P1;SDS_P2;PMS_P1;PMS_P2;Temp;Humidity;BMP_temperature;BMP_pressure;BME280_temperature;BME280_humidity;BME280_pressure;Samples;Min_cycle;Max_cycle;Signal;HPM_P1;HPM_P2
2021/12/23 00:01:46;;;;;;;22.17;8.73;;;;;;;7.70;44.03;101655.13;5038590;28;20438;-67
2021/12/23 00:04:12;;;;;;;20.30;9.60;;;;;;;8.91;42.03;101666.22;5042063;28;20025;-67
2021/12/23 00:06:38;;;;;;;19.00;9.20;;;;;;;9.73;40.55;101655.59;5034689;28;20025;-67
2021/12/23 00:09:05;;;;;;;19.10;8.20;;;;;;;9.58;40.55;101657.22;5039571;28;20149;-67
2021/12/23 00:11:31;;;;;;;21.57;9.50;;;;;;;10.62;38.39;101666.50;5042363;28;20120;-68
2021/12/23 00:14:05;;;;;;;20.70;8.30;;;;;;;10.61;38.23;101672.59;5027954;28;20028;-67
2021/12/23 00:19:20;;;;;;;21.37;8.93;;;;;;;10.67;37.90;101685.72;5044756;28;20041;-67
2021/12/23 00:24:30;;;;;;;21.83;9.20;;;;;;;9.76;39.61;101708.69;5062688;28;20106;-68
2021/12/23 00:26:55;;;;;;;23.50;8.83;;;;;;;10.16;39.64;101698.50;5045253;28;20032;-67
2021/12/23 00:29:21;;;;;;;16.93;8.47;;;;;;;10.68;38.67;101671.75;5042193;28;20048;-67
2021/12/23 00:31:46;;;;;;;21.27;8.73;;;;;;;10.48;38.12;101673.41;5034932;28;20469;-67
2021/12/23 00:34:12;;;;;;;20.07;7.73;;;;;;;10.40;38.89;101656.84;5032895;28;20033;-68
2021/12/23 00:36:38;;;;;;;20.47;8.57;;;;;;;9.83;39.92;101668.69;5061202;28;20396;-68
2021/12/23 00:39:06;;;;;;;21.90;8.23;;;;;;;10.63;37.85;101652.59;5052099;28;20036;-68
2021/12/23 00:41:32;;;;;;;18.87;8.77;;;;;;;11.30;37.07;101656.16;5039520;28;20402;-68
2021/12/23 00:43:58;;;;;;;17.67;8.80;;;;;;;11.07;37.17;101655.25;5032451;28;20021;-68
2021/12/23 00:46:24;;;;;;;19.00;9.07;;;;;;;11.17;37.08;101649.19;5062910;28;20398;-68
2021/12/23 00:48:49;;;;;;;20.53;8.70;;;;;;;10.76;37.76;101643.00;5043036;28;20024;-68
2021/12/23 00:51:15;;;;;;;25.77;9.33;;;;;;;10.34;38.06;101635.06;5039854;28;20470;-67
2021/12/23 00:53:41;;;;;;;20.07;9.10;;;;;;;10.00;39.29;101634.88;5047021;28;20029;-67
2021/12/23 00:56:09;;;;;;;19.57;9.00;;;;;;;10.85;37.92;101623.84;5034982;28;20029;-67
2021/12/23 00:58:35;;;;;;;21.50;9.63;;;;;;;10.88;37.76;101609.91;5052681;28;20035;-68
2021/12/23 01:01:01;;;;;;;21.90;9.30;;;;;;;11.01;37.35;101602.06;5068638;28;20028;-68
2021/12/23 01:03:26;;;;;;;21.53;9.30;;;;;;;10.98;37.00;101588.97;5054360;28;20017;-67
2021/12/23 01:05:52;;;;;;;23.27;9.37;;;;;;;11.14;37.12;101581.13;5047824;28;20035;-67
2021/12/23 01:08:19;;;;;;;19.40;8.47;;;;;;;11.02;37.44;101577.66;5053010;28;20396;-68
2021/12/23 01:10:48;;;;;;;20.20;10.03;;;;;;;10.77;37.42;101575.88;5050524;28;20108;-67
2021/12/23 01:13:14;;;;;;;19.87;8.83;;;;;;;11.44;35.82;101584.59;5038839;28;20131;-68
2021/12/23 01:15:58;;;;;;;21.33;9.67;;;;;;;10.93;36.89;101603.78;5038236;28;20112;-67
2021/12/23 01:18:25;;;;;;;20.90;9.03;;;;;;;10.41;37.41;101603.69;5043612;28;20021;-67
2021/12/23 01:21:03;;;;;;;18.83;8.97;;;;;;;10.91;35.99;101594.19;5038268;28;20025;-67
2021/12/23 01:23:29;;;;;;;20.50;9.10;;;;;;;10.60;37.24;101591.56;5051610;28;20041;-68
2021/12/23 01:25:54;;;;;;;21.20;8.97;;;;;;;10.84;36.94;101593.34;5040299;28;20044;-67
2021/12/23 01:28:21;;;;;;;23.40;9.23;;;;;;;10.94;36.22;101573.31;5065302;28;20040;-68
2021/12/23 01:30:50;;;;;;;26.60;10.20;;;;;;;9.58;38.51;101578.94;5063703;28;20029;-68
2021/12/23 01:33:15;;;;;;;21.83;9.87;;;;;;;10.54;37.04;101574.13;5044750;28;20120;-67
2021/12/23 01:35:41;;;;;;;20.10;8.37;;;;;;;9.78;39.03;101591.22;5064809;28;20021;-70
2021/12/23 01:38:08;;;;;;;17.97;7.93;;;;;;;10.17;37.87;101577.47;5044509;28;20028;-68
2021/12/23 01:40:34;;;;;;;22.53;10.00;;;;;;;9.90;38.15;101578.22;5044136;28;20029;-68
2021/12/23 01:43:00;;;;;;;20.53;8.90;;;;;;;9.66;38.73;101589.44;5040254;28;20041;-68
2021/12/23 01:45:30;;;;;;;20.17;9.37;;;;;;;9.41;39.08;101591.88;5045654;28;20027;-68
2021/12/23 01:47:56;;;;;;;19.87;9.37;;;;;;;10.08;38.01;101589.63;5040177;28;20020;-68
2021/12/23 01:50:27;;;;;;;19.67;9.37;;;;;;;9.99;38.01;101586.09;5066194;28;20332;-68
2021/12/23 01:52:53;;;;;;;18.73;8.37;;;;;;;10.29;37.34;101571.41;5062667;28;20017;-68
2021/12/23 01:55:18;;;;;;;21.37;9.07;;;;;;;9.42;38.91;101583.16;5044613;28;20099;-68
2021/12/23 01:57:44;;;;;;;28.50;9.97;;;;;;;9.64;38.81;101572.88;5044298;28;20025;-68
2021/12/23 02:00:16;;;;;;;26.60;10.57;;;;;;;9.18;39.18;101581.28;5066188;28;20145;-68
2021/12/23 02:02:42;;;;;;;23.85;10.45;;;;;;;9.24;38.78;101578.69;5049074;28;20032;-68
2021/12/23 02:05:09;;;;;;;20.10;9.97;;;;;;;9.07;39.10;101569.88;5053194;28;20488;-68
2021/12/23 02:07:35;;;;;;;22.93;9.33;;;;;;;9.73;38.52;101556.41;5060367;28;20119;-68
2021/12/23 02:10:00;;;;;;;24.30;10.37;;;;;;;9.46;38.88;101552.75;5035362;28;20495;-69
2021/12/23 02:12:27;;;;;;;25.17;10.97;;;;;;;8.44;41.38;101557.13;5037624;28;20537;-68
2021/12/23 02:14:52;;;;;;;23.90;9.90;;;;;;;7.40;43.13;101558.41;5050690;28;20035;-68
2021/12/23 02:17:18;;;;;;;25.00;10.77;;;;;;;8.37;41.48;101539.69;5047031;28;20649;-68
2021/12/23 02:19:43;;;;;;;27.63;11.07;;;;;;;8.84;40.39;101526.22;5042300;28;20154;-68
2021/12/23 02:22:09;;;;;;;27.33;12.60;;;;;;;8.84;39.87;101518.41;5039854;28;20488;-68
2021/12/23 02:24:34;;;;;;;27.17;11.40;;;;;;;8.17;42.19;101501.25;5067916;28;20052;-68
2021/12/23 02:27:00;;;;;;;25.40;11.20;;;;;;;6.80;44.54;101497.72;5059516;28;20044;-68
2021/12/23 02:29:25;;;;;;;34.47;13.20;;;;;;;7.03;44.37;101503.25;5047951;28;20103;-68
2021/12/23 02:31:52;;;;;;;33.50;13.17;;;;;;;6.48;45.51;101505.81;5062225;28;20136;-68
2021/12/23 02:34:19;;;;;;;32.53;13.10;;;;;;;7.39;44.88;101508.97;5044866;28;20413;-68
2021/12/23 02:36:52;;;;;;;32.63;12.33;;;;;;;7.50;44.28;101517.81;5056930;28;20381;-68
2021/12/23 02:39:18;;;;;;;36.80;13.13;;;;;;;7.54;43.22;101509.19;5070998;28;20305;-68
2021/12/23 02:41:43;;;;;;;36.80;13.20;;;;;;;6.75;44.99;101505.41;5066652;28;20279;-67
2021/12/23 02:44:09;;;;;;;32.10;13.00;;;;;;;6.96;45.29;101504.91;5042172;28;20044;-68
2021/12/23 02:46:35;;;;;;;35.83;13.77;;;;;;;7.23;44.43;101497.50;5043999;28;20334;-68
2021/12/23 02:49:01;;;;;;;39.10;15.23;;;;;;;6.92;45.48;101502.22;5069014;28;20082;-68
2021/12/23 02:51:26;;;;;;;34.60;14.13;;;;;;;7.21;44.92;101507.88;5047134;28;20033;-68
2021/12/23 02:53:52;;;;;;;35.23;14.63;;;;;;;7.56;43.62;101497.06;5052098;28;20028;-68
2021/12/23 02:56:17;;;;;;;42.77;15.37;;;;;;;7.33;44.35;101477.69;5068556;28;20027;-68
2021/12/23 02:58:45;;;;;;;43.37;16.03;;;;;;;6.77;46.60;101482.06;5067016;28;20258;-68
2021/12/23 03:01:11;;;;;;;36.53;15.07;;;;;;;7.54;45.35;101482.28;5049134;28;20055;-68
2021/12/23 03:03:37;;;;;;;37.77;15.50;;;;;;;7.22;46.04;101478.41;5068785;28;20024;-68
2021/12/23 03:06:03;;;;;;;35.23;15.17;;;;;;;6.76;47.07;101469.94;5049581;28;20289;-68
2021/12/23 03:08:37;;;;;;;40.43;14.87;;;;;;;7.33;45.77;101467.28;5049110;28;20481;-68
2021/12/23 03:11:04;;;;;;;45.33;15.77;;;;;;;7.95;44.33;101464.59;5065439;28;20036;-68
2021/12/23 03:13:30;;;;;;;44.30;16.20;;;;;;;7.46;45.27;101453.59;5047418;28;20283;-68
2021/12/23 03:15:56;;;;;;;44.10;15.40;;;;;;;7.55;45.65;101463.22;5065461;28;20024;-68
2021/12/23 03:18:21;;;;;;;45.80;16.37;;;;;;;8.27;44.53;101465.75;5067669;28;20402;-68
2021/12/23 03:20:47;;;;;;;41.73;15.47;;;;;;;8.25;43.59;101470.09;5055618;28;20075;-68
2021/12/23 03:23:13;;;;;;;44.73;17.00;;;;;;;7.66;45.16;101461.63;5060838;28;20044;-68
2021/12/23 03:25:38;;;;;;;50.63;16.93;;;;;;;5.92;49.22;101467.53;5050011;28;20028;-68
2021/12/23 03:28:04;;;;;;;49.67;17.40;;;;;;;6.58;48.60;101460.97;5058227;28;20055;-68
2021/12/23 03:30:29;;;;;;;50.27;17.27;;;;;;;6.02;48.19;101437.50;5033723;28;20503;-68
2021/12/23 03:32:55;;;;;;;50.03;17.80;;;;;;;6.82;46.78;101418.03;5037279;28;20021;-68
2021/12/23 03:35:21;;;;;;;51.43;17.23;;;;;;;6.71;48.02;101404.88;5041136;28;20028;-68
2021/12/23 03:37:46;;;;;;;52.37;17.23;;;;;;;7.17;46.87;101406.38;5035053;28;20028;-68
2021/12/23 03:40:12;;;;;;;48.17;18.07;;;;;;;7.04;46.97;101423.56;5045481;28;20494;-68
2021/12/23 03:42:39;;;;;;;47.77;17.77;;;;;;;8.41;45.14;101432.03;5044332;28;20039;-68
2021/12/23 03:45:07;;;;;;;56.50;16.50;;;;;;;8.68;43.78;101435.75;5040253;28;20051;-68
2021/12/23 03:47:34;;;;;;;50.20;17.13;;;;;;;8.10;44.50;101423.94;5054288;28;20059;-68
2021/12/23 03:49:59;;;;;;;55.60;18.17;;;;;;;8.08;44.13;101421.31;5058462;28;20024;-68
2021/12/23 03:52:24;;;;;;;49.67;16.23;;;;;;;7.39;46.78;101404.94;5034588;28;20571;-68
2021/12/23 03:54:50;;;;;;;49.20;17.67;;;;;;;7.70;45.10;101407.91;5044940;28;20075;-68
2021/12/23 03:57:15;;;;;;;48.87;16.80;;;;;;;8.24;45.11;101411.94;5037658;28;20031;-68
2021/12/23 03:59:40;;;;;;;55.57;16.77;;;;;;;8.97;42.44;101402.91;5052598;28;20158;-68
2021/12/23 04:02:06;;;;;;;54.67;16.57;;;;;;;8.95;43.21;101404.63;5066182;28;20033;-68
2021/12/23 04:04:31;;;;;;;46.60;16.13;;;;;;;8.14;44.59;101423.09;5045903;28;20025;-68
2021/12/23 04:06:56;;;;;;;55.30;16.37;;;;;;;9.51;42.08;101418.81;5035088;28;20025;-69
2021/12/23 04:09:22;;;;;;;60.77;19.70;;;;;;;8.68;43.24;101433.13;5034503;28;20075;-68
2021/12/23 04:11:47;;;;;;;51.87;17.33;;;;;;;8.58;43.81;101456.50;5061758;28;20028;-68
2021/12/23 04:14:13;;;;;;;53.03;16.97;;;;;;;8.98;43.09;101441.19;5041160;28;20025;-67
2021/12/23 04:16:38;;;;;;;58.47;16.53;;;;;;;9.88;40.94;101420.69;5033772;28;20057;-68
2021/12/23 04:19:09;;;;;;;56.50;16.27;;;;;;;9.74;41.54;101418.03;5044727;28;20040;-68
2021/12/23 04:21:35;;;;;;;53.47;16.00;;;;;;;9.04;43.05;101413.38;5059298;28;20548;-67
2021/12/23 04:24:01;;;;;;;49.63;16.73;;;;;;;8.96;43.52;101416.81;5036953;28;20055;-68
2021/12/23 04:26:26;;;;;;;52.93;16.53;;;;;;;8.89;42.37;101412.44;5037168;28;20431;-67
2021/12/23 04:28:52;;;;;;;52.50;16.77;;;;;;;9.88;40.74;101407.63;5039470;28;20499;-68
2021/12/23 04:31:21;;;;;;;53.00;15.60;;;;;;;10.02;40.79;101408.50;5066926;28;20498;-68
2021/12/23 04:33:48;;;;;;;52.23;16.03;;;;;;;9.50;41.35;101410.97;5063477;28;20111;-68
2021/12/23 04:36:14;;;;;;;57.10;16.23;;;;;;;10.35;40.57;101401.59;5067718;28;20032;-67
2021/12/23 04:38:41;;;;;;;56.30;17.13;;;;;;;9.29;42.28;101404.81;5038893;28;20045;-68
2021/12/23 04:41:08;;;;;;;46.63;15.90;;;;;;;10.32;40.41;101406.78;5051710;28;20029;-69
2021/12/23 04:43:33;;;;;;;48.97;16.20;;;;;;;10.41;39.45;101402.47;5045323;28;20029;-68
2021/12/23 04:45:59;;;;;;;53.63;19.07;;;;;;;9.96;41.20;101392.84;5068225;28;20099;-68
2021/12/23 04:48:24;;;;;;;46.87;15.67;;;;;;;9.77;40.95;101378.88;5041833;28;20029;-67
2021/12/23 04:50:50;;;;;;;50.23;17.07;;;;;;;10.10;40.72;101371.94;5070452;28;20071;-68
2021/12/23 04:53:16;;;;;;;49.17;15.63;;;;;;;9.89;41.13;101371.91;5062076;28;20040;-68
2021/12/23 04:55:42;;;;;;;54.67;16.67;;;;;;;9.95;40.86;101375.41;5066894;28;20028;-67
2021/12/23 04:58:07;;;;;;;56.27;16.77;;;;;;;9.81;41.20;101377.16;5049839;28;20457;-68
2021/12/23 05:00:33;;;;;;;53.10;17.43;;;;;;;9.32;42.16;101368.28;5054863;28;20032;-68
2021/12/23 05:02:58;;;;;;;58.33;17.37;;;;;;;9.74;41.52;101360.59;5064942;28;20024;-68
2021/12/23 05:05:23;;;;;;;49.70;16.20;;;;;;;9.96;41.23;101358.00;5036842;28;20115;-67
2021/12/23 05:07:49;;;;;;;48.27;16.10;;;;;;;9.84;41.63;101371.94;5042002;28;20049;-68
2021/12/23 05:10:16;;;;;;;56.10;18.23;;;;;;;9.70;41.48;101364.06;5066108;28;20078;-68
2021/12/23 05:12:44;;;;;;;47.33;17.13;;;;;;;9.68;41.54;101350.13;5061439;28;20442;-68
2021/12/23 05:15:11;;;;;;;53.00;17.53;;;;;;;10.29;40.37;101348.41;5069354;28;20416;-67
2021/12/23 05:17:37;;;;;;;46.10;16.30;;;;;;;10.12;40.66;101340.59;5043124;28;20536;-68
2021/12/23 05:20:07;;;;;;;55.33;18.27;;;;;;;10.76;39.20;101328.38;5051286;28;20284;-67
2021/12/23 05:22:33;;;;;;;55.10;17.77;;;;;;;9.67;41.25;101338.84;5052233;28;20016;-68
2021/12/23 05:24:59;;;;;;;49.30;16.60;;;;;;;9.90;40.62;101345.81;5036960;28;20117;-67
2021/12/23 05:27:24;;;;;;;56.60;18.63;;;;;;;9.55;41.61;101341.41;5040409;28;20029;-67
2021/12/23 05:29:49;;;;;;;48.57;17.07;;;;;;;9.77;41.11;101339.72;5036222;28;20036;-68
2021/12/23 05:32:15;;;;;;;54.80;17.03;;;;;;;10.05;40.94;101321.44;5035249;28;20020;-68
2021/12/23 05:34:40;;;;;;;50.90;18.77;;;;;;;9.03;42.58;101320.38;5034719;28;20079;-67
2021/12/23 05:37:05;;;;;;;53.57;17.57;;;;;;;9.46;41.65;101323.13;5039980;28;20025;-68
2021/12/23 05:39:31;;;;;;;50.40;17.00;;;;;;;9.25;43.28;101332.63;5063252;28;20029;-68
2021/12/23 05:41:56;;;;;;;53.43;18.77;;;;;;;9.88;41.03;101321.44;5060589;28;20021;-68
2021/12/23 05:44:22;;;;;;;56.50;17.03;;;;;;;9.21;42.83;101314.34;5037670;28;20344;-68
2021/12/23 05:46:47;;;;;;;52.80;17.63;;;;;;;8.88;43.10;101310.75;5048252;28;20028;-68
2021/12/23 05:49:13;;;;;;;50.27;17.10;;;;;;;8.88;42.80;101301.19;5038792;28;20118;-69
2021/12/23 05:51:39;;;;;;;56.57;19.17;;;;;;;8.51;44.32;101293.19;5036928;28;20033;-68
2021/12/23 05:54:04;;;;;;;57.23;17.13;;;;;;;8.40;44.63;101306.09;5057554;28;20036;-68
2021/12/23 05:56:30;;;;;;;55.27;17.30;;;;;;;9.14;42.91;101293.47;5048092;28;20035;-68
2021/12/23 05:58:55;;;;;;;59.23;18.60;;;;;;;8.90;43.34;101301.19;5043037;28;20036;-68
2021/12/23 06:01:21;;;;;;;53.67;18.07;;;;;;;9.11;43.20;101301.28;5037745;28;20052;-68
2021/12/23 06:03:46;;;;;;;60.10;17.30;;;;;;;9.46;42.33;101302.25;5040018;28;20082;-68
2021/12/23 06:06:13;;;;;;;58.90;18.23;;;;;;;9.52;42.12;101297.06;5037432;28;20061;-71
2021/12/23 06:08:39;;;;;;;54.83;18.73;;;;;;;9.29;43.10;101292.63;5058774;28;20032;-70
2021/12/23 06:11:05;;;;;;;57.43;16.30;;;;;;;9.97;41.05;101284.91;5054680;28;20076;-70
2021/12/23 06:13:30;;;;;;;49.27;15.90;;;;;;;9.66;41.87;101274.44;5038963;28;20448;-68
2021/12/23 06:15:56;;;;;;;58.43;17.47;;;;;;;10.71;40.12;101276.06;5058620;28;20042;-68
2021/12/23 06:18:21;;;;;;;51.87;16.27;;;;;;;9.51;42.22;101269.19;5043368;28;20350;-70
2021/12/23 06:20:47;;;;;;;53.37;15.73;;;;;;;10.28;40.50;101263.09;5050015;28;20031;-70
2021/12/23 06:23:12;;;;;;;59.20;17.60;;;;;;;10.64;40.13;101272.59;5045969;28;20071;-68
2021/12/23 06:25:38;;;;;;;54.93;16.33;;;;;;;9.68;42.05;101282.25;5052998;28;20063;-67
2021/12/23 06:28:04;;;;;;;52.37;16.27;;;;;;;10.08;40.90;101278.78;5053513;28;20170;-68
2021/12/23 06:30:29;;;;;;;52.73;16.93;;;;;;;10.44;40.31;101292.69;5036803;28;20087;-68
2021/12/23 06:32:55;;;;;;;64.97;19.13;;;;;;;10.56;40.24;101299.66;5041048;28;20048;-68
2021/12/23 06:35:24;;;;;;;57.40;18.00;;;;;;;11.03;39.01;101291.63;5060579;28;20564;-68
2021/12/23 06:37:49;;;;;;;50.63;15.07;;;;;;;9.58;41.67;101297.03;5063070;28;20044;-68
2021/12/23 06:40:15;;;;;;;56.07;15.00;;;;;;;10.31;40.69;101279.63;5059586;28;20285;-68
2021/12/23 06:42:41;;;;;;;50.43;17.87;;;;;;;10.43;40.37;101284.00;5056792;28;20079;-68
2021/12/23 06:45:07;;;;;;;57.10;16.07;;;;;;;10.01;41.57;101275.31;5044185;28;20040;-68
2021/12/23 06:47:36;;;;;;;47.90;14.13;;;;;;;10.41;41.22;101270.03;5044991;28;20058;-68
2021/12/23 06:50:04;;;;;;;50.63;16.73;;;;;;;9.52;42.36;101265.72;5057426;28;20020;-68
2021/12/23 06:52:30;;;;;;;51.40;16.60;;;;;;;10.12;41.34;101251.78;5033793;28;20036;-68
2021/12/23 06:54:56;;;;;;;58.40;17.83;;;;;;;11.19;38.93;101254.91;5056604;28;20146;-68
2021/12/23 06:57:23;;;;;;;48.57;16.33;;;;;;;10.37;41.01;101254.38;5042793;28;20459;-68
2021/12/23 06:59:49;;;;;;;49.17;16.80;;;;;;;11.06;39.17;101254.13;5036794;28;20040;-68
2021/12/23 07:02:15;;;;;;;51.27;17.07;;;;;;;11.01;39.82;101242.81;5058000;28;20029;-68
2021/12/23 07:04:42;;;;;;;50.03;16.10;;;;;;;11.44;38.67;101239.91;5056276;28;20034;-67
2021/12/23 07:07:09;;;;;;;51.57;16.63;;;;;;;11.13;39.21;101247.13;5043713;28;20052;-68
2021/12/23 07:09:40;;;;;;;54.37;18.00;;;;;;;10.83;39.93;101252.47;5038739;28;20033;-68
2021/12/23 07:12:08;;;;;;;57.63;16.33;;;;;;;11.25;39.56;101254.00;5055608;28;20025;-68
2021/12/23 07:14:34;;;;;;;53.03;16.87;;;;;;;10.85;39.57;101255.09;5066312;28;20055;-68
2021/12/23 07:16:59;;;;;;;46.37;16.07;;;;;;;11.08;39.11;101261.97;5039255;28;20453;-68
2021/12/23 07:19:26;;;;;;;49.83;16.63;;;;;;;11.36;38.72;101271.41;5057650;28;20042;-68
2021/12/23 07:21:52;;;;;;;53.50;17.67;;;;;;;10.33;41.63;101274.38;5051542;28;20565;-68
2021/12/23 07:24:17;;;;;;;53.47;16.83;;;;;;;11.10;39.83;101275.91;5037505;28;20039;-68
2021/12/23 07:26:44;;;;;;;50.30;16.23;;;;;;;10.95;39.87;101267.25;5043489;28;20032;-68
2021/12/23 07:29:09;;;;;;;51.43;16.10;;;;;;;11.22;39.32;101267.97;5049036;28;20496;-68
2021/12/23 07:31:35;;;;;;;47.97;16.17;;;;;;;10.63;40.64;101270.88;5035742;28;20029;-68
2021/12/23 07:34:00;;;;;;;50.33;16.90;;;;;;;11.01;39.95;101272.44;5047241;28;20023;-68
2021/12/23 07:36:27;;;;;;;47.60;16.33;;;;;;;11.29;39.09;101281.91;5052714;28;20500;-68
2021/12/23 07:38:53;;;;;;;55.77;16.87;;;;;;;11.53;38.50;101280.88;5063900;28;20484;-68
2021/12/23 07:41:19;;;;;;;53.37;17.90;;;;;;;11.36;38.60;101274.00;5041312;28;20036;-68
2021/12/23 07:43:56;;;;;;;49.97;16.63;;;;;;;10.96;39.69;101269.00;5037181;28;20025;-68
2021/12/23 07:46:22;;;;;;;46.20;15.40;;;;;;;10.48;41.11;101260.44;5063042;28;20028;-68
2021/12/23 07:48:47;;;;;;;48.87;14.63;;;;;;;10.87;39.82;101263.81;5042603;28;20040;-68
2021/12/23 07:51:13;;;;;;;46.20;15.90;;;;;;;10.92;39.83;101245.47;5044372;28;20507;-68
2021/12/23 07:53:38;;;;;;;49.90;16.37;;;;;;;11.33;39.42;101231.28;5039775;28;20017;-68
2021/12/23 07:56:04;;;;;;;48.53;15.80;;;;;;;11.02;39.96;101226.25;5030706;28;20036;-68
2021/12/23 07:58:30;;;;;;;53.50;16.87;;;;;;;10.85;40.45;101231.53;5036600;28;20102;-68
2021/12/23 08:00:56;;;;;;;42.03;15.20;;;;;;;10.21;41.50;101225.66;5065305;28;20020;-68
2021/12/23 08:03:21;;;;;;;50.00;16.00;;;;;;;9.56;43.10;101227.44;5048156;28;20468;-68
2021/12/23 08:05:46;;;;;;;50.13;15.07;;;;;;;10.43;41.33;101225.63;5031002;28;20456;-68
2021/12/23 08:08:12;;;;;;;51.20;14.70;;;;;;;10.68;41.22;101227.25;5056432;28;20039;-68
2021/12/23 08:10:37;;;;;;;42.87;15.90;;;;;;;10.09;42.16;101210.88;5037353;28;20062;-68
2021/12/23 08:13:03;;;;;;;54.93;15.97;;;;;;;9.87;42.38;101215.25;5031178;28;20503;-68
2021/12/23 08:15:28;;;;;;;48.57;15.27;;;;;;;9.77;42.86;101219.63;5050360;28;20031;-68
2021/12/23 08:17:54;;;;;;;48.27;15.13;;;;;;;9.50;42.90;101210.03;5070145;28;20043;-68
2021/12/23 08:20:19;;;;;;;44.33;14.57;;;;;;;10.73;41.24;101213.31;5040768;28;20032;-68
2021/12/23 08:22:45;;;;;;;48.53;13.70;;;;;;;11.19;40.57;101207.81;5039489;28;20408;-68
2021/12/23 08:25:13;;;;;;;48.43;15.73;;;;;;;10.68;41.44;101208.97;5071064;28;20028;-68
2021/12/23 08:27:39;;;;;;;54.10;16.93;;;;;;;10.56;41.37;101205.53;5068035;28;20107;-68
2021/12/23 08:30:07;;;;;;;50.40;16.03;;;;;;;10.53;41.38;101201.19;5042258;28;20033;-68
2021/12/23 08:32:33;;;;;;;54.03;17.33;;;;;;;11.54;39.16;101194.47;5033399;28;20033;-69
2021/12/23 08:34:58;;;;;;;48.57;16.83;;;;;;;11.09;40.64;101193.06;5046385;28;20428;-68
2021/12/23 08:37:24;;;;;;;58.50;17.17;;;;;;;11.13;40.15;101186.94;5052007;28;20503;-69
2021/12/23 08:39:50;;;;;;;50.43;18.53;;;;;;;10.98;40.11;101183.53;5070017;28;20477;-68
2021/12/23 08:42:16;;;;;;;57.43;17.37;;;;;;;11.76;39.28;101167.22;5050930;28;20111;-68
2021/12/23 08:44:41;;;;;;;54.07;17.70;;;;;;;11.31;39.82;101159.78;5051686;28;20032;-68
2021/12/23 08:47:09;;;;;;;51.67;16.63;;;;;;;11.50;39.88;101160.50;5032673;28;20032;-68
2021/12/23 08:49:34;;;;;;;56.63;17.20;;;;;;;11.20;39.66;101152.00;5032364;28;20024;-69
2021/12/23 08:52:00;;;;;;;51.23;16.43;;;;;;;11.17;39.96;101152.03;5030510;28;20119;-68
2021/12/23 08:54:25;;;;;;;59.73;17.13;;;;;;;10.33;40.70;101162.91;5038114;28;20024;-68
2021/12/23 08:56:50;;;;;;;48.53;16.70;;;;;;;10.99;39.98;101148.66;5065668;28;20036;-68
2021/12/23 08:59:17;;;;;;;54.90;18.17;;;;;;;9.74;42.56;101148.25;5034442;28;20550;-68
2021/12/23 09:01:42;;;;;;;49.40;16.60;;;;;;;10.71;41.70;101140.09;5042154;28;20021;-68
2021/12/23 09:04:07;;;;;;;53.03;17.53;;;;;;;10.64;41.32;101131.44;5060524;28;20535;-68
2021/12/23 09:06:33;;;;;;;57.63;17.70;;;;;;;11.07;40.77;101125.03;5050719;28;20024;-69
2021/12/23 09:08:58;;;;;;;55.03;17.67;;;;;;;10.08;42.90;101125.53;5052581;28;20024;-68
2021/12/23 09:11:25;;;;;;;45.50;16.37;;;;;;;10.49;41.72;101121.06;5063497;28;20079;-68
2021/12/23 09:13:50;;;;;;;55.50;17.00;;;;;;;9.65;43.94;101110.84;5042980;28;20039;-68
2021/12/23 09:16:16;;;;;;;52.27;16.20;;;;;;;10.55;42.49;101105.38;5035807;28;20020;-68
2021/12/23 09:18:41;;;;;;;48.60;16.60;;;;;;;11.29;40.39;101091.75;5043643;28;20027;-68
2021/12/23 09:21:07;;;;;;;56.07;17.43;;;;;;;10.10;42.63;101102.06;5066501;28;20025;-68
2021/12/23 09:23:32;;;;;;;54.47;18.33;;;;;;;11.08;40.86;101092.78;5060217;28;20039;-68
2021/12/23 09:25:58;;;;;;;61.33;17.67;;;;;;;10.27;41.67;101115.88;5048205;28;20029;-69
2021/12/23 09:33:33;;;;;;;49.70;16.67;;;;;;;9.69;44.10;101109.13;5064930;28;20115;-69
2021/12/23 09:35:59;;;;;;;57.97;15.23;;;;;;;9.46;43.87;101115.22;5046779;28;20151;-69
2021/12/23 09:38:27;;;;;;;51.60;17.33;;;;;;;10.30;43.39;101125.47;5056131;28;20124;-69
2021/12/23 09:41:13;;;;;;;52.10;17.03;;;;;;;9.76;43.55;101112.59;5038384;28;20028;-69
2021/12/23 09:43:41;;;;;;;54.90;16.73;;;;;;;9.87;43.97;101102.97;5036164;28;20481;-69
2021/12/23 09:46:09;;;;;;;51.53;17.33;;;;;;;9.42;45.96;101091.75;5062413;28;20048;-69
2021/12/23 09:48:37;;;;;;;56.90;16.93;;;;;;;10.05;44.27;101082.91;5055154;28;20548;-69
2021/12/23 09:51:05;;;;;;;56.03;16.80;;;;;;;9.55;45.17;101088.28;5040798;28;20176;-69
2021/12/23 09:53:34;;;;;;;56.87;17.00;;;;;;;9.52;45.01;101093.50;5051883;28;20439;-69
2021/12/23 09:56:01;;;;;;;48.30;17.90;;;;;;;9.59;45.19;101090.00;5043369;28;20035;-71
2021/12/23 09:58:27;;;;;;;49.77;16.10;;;;;;;9.91;45.10;101091.66;5060587;28;20028;-71
2021/12/23 10:00:53;;;;;;;54.83;19.13;;;;;;;9.95;45.02;101093.38;5062758;28;20504;-71
2021/12/23 10:03:22;;;;;;;55.60;15.40;;;;;;;10.67;43.16;101081.75;5059200;28;20039;-71
2021/12/23 10:05:48;;;;;;;53.43;18.10;;;;;;;9.26;45.16;101083.94;5045282;28;20035;-71
2021/12/23 10:08:15;;;;;;;53.63;16.67;;;;;;;9.68;45.26;101090.00;5035265;28;20029;-71
2021/12/23 10:38:43;;;;;;;39.43;13.43;;;;;;;11.45;41.52;101041.88;5051952;28;20048;-68
2021/12/23 10:41:16;;;;;;;49.77;16.77;;;;;;;10.20;43.92;101059.31;5041225;28;20036;-68
2021/12/23 10:43:48;;;;;;;47.03;15.50;;;;;;;11.43;41.74;101038.38;5066351;28;20115;-70
2021/12/23 10:46:20;;;;;;;58.97;15.40;;;;;;;10.56;43.55;101028.66;5044929;28;20071;-71
2021/12/23 10:52:09;;;;;;;41.63;15.00;;;;;;;10.16;44.25;101028.88;5055587;28;20120;-70
2021/12/23 11:00:16;;;;;;;40.30;14.53;;;;;;;11.48;41.67;101023.50;5061841;28;20039;-70
2021/12/23 11:03:10;;;;;;;44.23;15.20;;;;;;;10.82;43.29;101030.22;5050903;28;20025;-70
2021/12/23 11:05:43;;;;;;;38.13;13.90;;;;;;;11.21;42.40;101028.16;5038880;28;20020;-71
2021/12/23 11:08:36;;;;;;;;;;;;;;;10.51;43.60;101038.31;5052633;28;20444;-70
2021/12/23 11:36:31;;;;;;;39.17;14.87;;;;;;;13.29;38.99;100944.84;5051984;28;20043;-68
2021/12/23 11:43:57;;;;;;;43.20;14.00;;;;;;;13.16;39.68;100925.81;5058779;28;20037;-70
2021/12/23 11:46:46;;;;;;;37.38;14.88;;;;;;;12.64;39.42;100915.38;5055348;28;20467;-69
2021/12/23 11:49:13;;;;;;;38.47;13.27;;;;;;;11.96;41.25;100908.59;5058802;28;20047;-71
2021/12/23 11:54:11;;;;;;;35.77;12.90;;;;;;;11.32;42.76;100910.25;5066244;28;20033;-70
2021/12/23 11:56:43;;;;;;;34.13;13.97;;;;;;;12.54;40.07;100895.44;5045439;28;20036;-68
2021/12/23 11:59:12;;;;;;;38.15;14.05;;;;;;;13.27;39.62;100888.84;5063663;28;20021;-68
2021/12/23 12:01:44;;;;;;;43.53;13.67;;;;;;;13.23;39.35;100881.06;5042038;28;20036;-69
2021/12/23 12:04:12;;;;;;;38.07;13.97;;;;;;;13.01;39.32;100875.38;5038271;28;20065;-68
2021/12/23 12:06:46;;;;;;;39.37;13.80;;;;;;;12.17;41.71;100869.84;5043174;28;20393;-69
2021/12/23 12:09:24;;;;;;;36.87;13.80;;;;;;;12.05;41.96;100869.16;5040451;28;20489;-69
2021/12/23 12:11:58;;;;;;;40.73;14.50;;;;;;;12.27;41.62;100868.81;5040969;28;20033;-68
2021/12/23 12:14:36;;;;;;;40.17;14.90;;;;;;;12.05;42.30;100852.59;5037554;28;20131;-68
2021/12/23 12:17:23;;;;;;;36.30;14.13;;;;;;;11.70;42.64;100853.94;5046802;28;20170;-68
2021/12/23 12:19:51;;;;;;;40.03;13.47;;;;;;;12.29;40.47;100847.81;5040925;28;20115;-69
2021/12/23 12:22:45;;;;;;;38.80;13.67;;;;;;;12.02;41.27;100839.50;5060412;28;20029;-71
2021/12/23 12:25:32;;;;;;;34.53;13.00;;;;;;;11.84;41.82;100841.53;5055361;28;20037;-71
2021/12/23 12:27:58;;;;;;;39.20;14.80;;;;;;;12.69;40.67;100840.13;5039732;28;20111;-69
2021/12/23 12:30:46;;;;;;;35.20;14.07;;;;;;;13.77;38.43;100834.41;5051719;28;20516;-69
2021/12/23 12:33:34;;;;;;;36.30;13.53;;;;;;;12.74;41.43;100840.03;5038596;28;20033;-70
2021/12/23 12:36:02;;;;;;;40.90;15.93;;;;;;;13.61;38.95;100831.25;5041855;28;20060;-70